createdAt,value
2018-05-21T00:00:02.695Z,11.6
2018-05-21T00:15:02.985Z,11.5
2018-05-21T00:30:02.345Z,11.4
2018-05-21T00:45:02.669Z,11.4
2018-05-21T01:00:02.905Z,11.4
2018-05-21T01:15:03.201Z,11.3
2018-05-21T01:30:02.559Z,11.3
2018-05-21T01:45:02.750Z,11.2
2018-05-21T02:00:03.007Z,11.2
2018-05-21T02:15:02.387Z,11.2
2018-05-21T02:30:03.028Z,11.2
2018-05-21T02:45:02.386Z,11.1
2018-05-21T03:00:02.692Z,11.1
2018-05-21T03:15:03.158Z,11.1
2018-05-21T03:30:03.018Z,11.1
2018-05-21T03:45:02.469Z,11.1
2018-05-21T04:00:02.755Z,11
2018-05-21T04:15:03.001Z,11
2018-05-21T04:30:02.291Z,11
2018-05-21T04:45:02.522Z,11
2018-05-21T05:00:02.750Z,11
2018-05-21T05:15:02.994Z,11
2018-05-21T05:30:03.002Z,11
2018-05-21T05:45:02.375Z,11
2018-05-21T06:00:02.682Z,11.1
2018-05-21T06:15:02.906Z,11.1
2018-05-21T06:30:02.451Z,11.1
2018-05-21T06:45:02.798Z,11.1
2018-05-21T07:00:03.035Z,11.2
2018-05-21T07:15:02.398Z,11.2
2018-05-21T07:30:03.341Z,11.3
2018-05-21T07:45:02.603Z,11.4
2018-05-21T08:00:02.997Z,11.4
2018-05-21T08:15:02.373Z,11.5
2018-05-21T08:30:02.743Z,11.6
2018-05-21T08:45:02.971Z,11.7
2018-05-21T09:00:02.217Z,11.8
2018-05-21T09:15:02.433Z,11.8
2018-05-21T09:30:02.758Z,11.9
2018-05-21T09:45:03.009Z,12
2018-05-21T10:00:02.283Z,12.1
2018-05-21T10:15:02.503Z,12.2
2018-05-21T10:30:02.799Z,12.3
2018-05-21T10:45:03.001Z,12.4
2018-05-21T11:00:02.250Z,12.5
2018-05-21T11:15:02.560Z,12.6
2018-05-21T11:30:02.880Z,12.8
2018-05-21T11:45:03.124Z,12.9
2018-05-21T12:00:02.383Z,13
2018-05-21T12:15:02.585Z,13.1
2018-05-21T12:30:02.927Z,13.2
2018-05-21T12:45:03.204Z,13.3
2018-05-21T13:00:02.503Z,13.4
2018-05-21T13:15:02.724Z,13.5
2018-05-21T13:30:03.013Z,13.6
2018-05-21T13:45:02.271Z,13.6
2018-05-21T14:00:02.477Z,13.8
2018-05-21T14:15:02.705Z,13.8
2018-05-21T14:30:03.006Z,13.8
2018-05-21T14:45:02.258Z,13.8
2018-05-21T15:00:02.475Z,13.9
2018-05-21T15:15:02.759Z,13.9
2018-05-21T15:30:03.087Z,13.9
2018-05-21T15:45:02.342Z,14
2018-05-21T16:00:02.773Z,14.1
2018-05-21T16:15:03.158Z,14.1
2018-05-21T16:30:02.522Z,14.2
2018-05-21T16:45:02.796Z,14.2
2018-05-21T17:00:03.076Z,14.2
2018-05-21T17:15:02.516Z,14.2
2018-05-21T17:30:02.799Z,14.2
2018-05-21T17:45:03.115Z,14.2
2018-05-21T18:00:02.606Z,14.2
2018-05-21T18:15:02.810Z,14.2
2018-05-21T18:30:03.193Z,14.1
2018-05-21T18:45:02.470Z,14.1
2018-05-21T19:00:02.808Z,14.1
2018-05-21T19:15:03.090Z,14
2018-05-21T19:30:02.450Z,13.9
2018-05-21T19:45:02.762Z,13.9
2018-05-21T20:00:02.996Z,13.9
2018-05-21T20:15:02.346Z,13.8
2018-05-21T20:30:02.645Z,13.8
2018-05-21T20:45:02.893Z,13.8
2018-05-21T21:00:03.094Z,13.7
2018-05-21T21:15:02.374Z,13.6
2018-05-21T21:30:02.959Z,13.6
2018-05-21T21:45:02.223Z,13.6
2018-05-21T22:00:02.702Z,13.5
2018-05-21T22:15:02.978Z,13.4
2018-05-21T22:30:02.328Z,13.4
2018-05-21T22:45:02.567Z,13.2
2018-05-21T23:00:02.979Z,13.2
2018-05-21T23:15:02.267Z,13.1
2018-05-21T23:30:02.666Z,13.1
2018-05-21T23:45:03.002Z,13
